createdAt,value
2018-12-07T00:01:31.614Z,99847.38
2018-12-07T00:04:36.257Z,99838.50
2018-12-07T00:07:40.954Z,99844.22
2018-12-07T00:10:45.684Z,99840.63
2018-12-07T00:13:50.514Z,99842.26
2018-12-07T00:16:55.327Z,99833.50
2018-12-07T00:20:00.047Z,99824.86
2018-12-07T00:23:05.476Z,99825.32
2018-12-07T00:26:10.341Z,99821.52
2018-12-07T00:29:15.072Z,99815.53
2018-12-07T00:32:19.899Z,99811.37
2018-12-07T00:35:24.548Z,99809.75
2018-12-07T00:38:29.259Z,99805.49
2018-12-07T00:41:33.940Z,99810.48
2018-12-07T00:44:38.565Z,99808.11
2018-12-07T00:47:43.132Z,99802.25
2018-12-07T00:50:47.754Z,99795.70
2018-12-07T00:53:52.394Z,99792.36
2018-12-07T00:56:57.104Z,99784.12
2018-12-07T01:00:01.643Z,99792.36
2018-12-07T01:03:06.532Z,99778.94
2018-12-07T01:06:11.322Z,99774.52
2018-12-07T01:09:16.208Z,99779.51
2018-12-07T01:12:20.849Z,99775.82
2018-12-07T01:15:25.489Z,99777.18
2018-12-07T01:18:30.076Z,99782.00
2018-12-07T01:21:35.048Z,99776.10
2018-12-07T01:24:39.672Z,99789.77
2018-12-07T01:27:44.094Z,99783.75
2018-12-07T01:30:48.820Z,99781.84
2018-12-07T01:33:53.405Z,99780.03
2018-12-07T01:36:58.026Z,99785.28
2018-12-07T01:40:02.651Z,99786.63
2018-12-07T01:43:07.249Z,99779.80
2018-12-07T01:46:11.871Z,99783.23
2018-12-07T01:49:16.491Z,99777.73
2018-12-07T01:52:21.110Z,99780.20
2018-12-07T01:55:25.775Z,99775.52
2018-12-07T01:58:30.340Z,99768.11
2018-12-07T02:01:34.963Z,99771.75
2018-12-07T02:04:39.834Z,99767.48
2018-12-07T02:07:44.474Z,99761.95
2018-12-07T02:10:49.199Z,99768.83
2018-12-07T02:13:53.785Z,99759.23
2018-12-07T02:16:58.397Z,99750.20
2018-12-07T02:20:02.952Z,99746.41
2018-12-07T02:23:07.508Z,99726.43
2018-12-07T02:26:12.151Z,99731.47
2018-12-07T02:29:16.784Z,99728.91
2018-12-07T02:32:21.376Z,99722.09
2018-12-07T02:35:26.069Z,99724.41
2018-12-07T02:38:30.678Z,99717.65
2018-12-07T02:41:35.335Z,99713.73
2018-12-07T02:44:39.962Z,99704.27
2018-12-07T02:47:44.706Z,99704.73
2018-12-07T02:50:55.981Z,99696.00
2018-12-07T02:54:00.641Z,99689.45
2018-12-07T02:57:05.375Z,99688.52
2018-12-07T03:00:10.744Z,99681.84
2018-12-07T03:03:16.070Z,99681.19
2018-12-07T03:06:20.807Z,99674.84
2018-12-07T03:09:25.407Z,99678.84
2018-12-07T03:12:30.082Z,99670.89
2018-12-07T03:15:34.601Z,99679.31
2018-12-07T03:18:39.205Z,99673.98
2018-12-07T03:21:43.916Z,99668.11
2018-12-07T03:24:48.506Z,99666.77
2018-12-07T03:27:53.254Z,99666.12
2018-12-07T03:30:58.047Z,99661.64
2018-12-07T03:34:02.706Z,99664.48
2018-12-07T03:37:07.316Z,99665.41
2018-12-07T03:40:12.048Z,99658.44
2018-12-07T03:43:16.675Z,99661.50
2018-12-07T03:46:21.341Z,99655.78
2018-12-07T03:49:26.077Z,99659.83
2018-12-07T03:52:30.532Z,99655.73
2018-12-07T03:55:35.385Z,99646.10
2018-12-07T03:58:40.034Z,99640.63
2018-12-07T04:01:44.610Z,99645.28
2018-12-07T04:04:49.132Z,99634.41
2018-12-07T04:07:53.796Z,99629.53
2018-12-07T04:10:58.437Z,99627.86
2018-12-07T04:14:03.271Z,99628.19
2018-12-07T04:17:08.056Z,99623.80
2018-12-07T04:20:12.799Z,99618.86
2018-12-07T04:23:17.501Z,99623.47
2018-12-07T04:26:28.658Z,99618.86
2018-12-07T04:29:33.778Z,99620.64
2018-12-07T04:32:38.314Z,99610.15
2018-12-07T04:35:43.088Z,99612.27
2018-12-07T04:38:47.639Z,99617.90
2018-12-07T04:41:52.138Z,99598.13
2018-12-07T04:44:56.764Z,99602.05
2018-12-07T04:48:01.682Z,99596.64
2018-12-07T04:51:06.242Z,99591.52
2018-12-07T04:54:10.857Z,99595.35
2018-12-07T04:57:15.443Z,99596.59
2018-12-07T05:00:20.431Z,99594.88
2018-12-07T05:03:25.082Z,99594.35
2018-12-07T05:06:29.660Z,99588.41
2018-12-07T05:09:34.249Z,99582.66
2018-12-07T05:12:39.143Z,99577.65
2018-12-07T05:15:43.942Z,99573.92
2018-12-07T05:18:48.534Z,99575.50
2018-12-07T05:21:53.189Z,99569.75
2018-12-07T05:24:57.818Z,99568.80
2018-12-07T05:28:02.456Z,99578.00
2018-12-07T05:31:07.041Z,99576.98
2018-12-07T05:34:11.806Z,99570.95
2018-12-07T05:37:16.308Z,99568.86
2018-12-07T05:40:20.882Z,99561.63
2018-12-07T05:43:25.443Z,99559.21
2018-12-07T05:46:30.101Z,99566.38
2018-12-07T05:49:34.715Z,99556.36
2018-12-07T05:52:39.332Z,99547.91
2018-12-07T05:55:44.655Z,99555.01
2018-12-07T05:58:49.330Z,99553.88
2018-12-07T06:01:54.041Z,99549.41
2018-12-07T06:04:58.673Z,99549.35
2018-12-07T06:08:03.542Z,99550.55
2018-12-07T06:14:22.368Z,99555.76
2018-12-07T06:17:26.882Z,99555.09
2018-12-07T06:20:31.596Z,99549.95
2018-12-07T06:23:36.222Z,99555.76
2018-12-07T06:26:40.991Z,99539.89
2018-12-07T06:29:45.743Z,99535.42
2018-12-07T06:32:50.526Z,99533.81
2018-12-07T06:35:55.256Z,99534.29
2018-12-07T06:38:59.866Z,99528.11
2018-12-07T06:42:04.560Z,99530.74
2018-12-07T06:45:09.314Z,99531.90
2018-12-07T06:48:13.893Z,99527.30
2018-12-07T06:51:18.578Z,99526.22
2018-12-07T06:54:23.624Z,99530.70
2018-12-07T06:57:28.280Z,99517.16
2018-12-07T07:00:32.803Z,99523.66
2018-12-07T07:03:37.582Z,99526.44
2018-12-07T07:06:42.142Z,99517.99
2018-12-07T07:09:46.690Z,99507.86
2018-12-07T07:12:51.374Z,99516.69
2018-12-07T07:15:55.915Z,99525.63
2018-12-07T07:19:00.593Z,99518.95
2018-12-07T07:22:05.222Z,99519.63
2018-12-07T07:25:10.007Z,99510.55
2018-12-07T07:28:14.649Z,99513.03
2018-12-07T07:31:19.238Z,99517.38
2018-12-07T07:34:23.946Z,99520.02
2018-12-07T07:37:28.597Z,99512.13
2018-12-07T07:40:33.232Z,99499.96
2018-12-07T07:43:37.984Z,99498.79
2018-12-07T07:46:42.651Z,99503.89
2018-12-07T07:49:47.146Z,99505.08
2018-12-07T07:52:51.784Z,99503.73
2018-12-07T07:55:56.340Z,99506.49
2018-12-07T07:59:01.047Z,99504.11
2018-12-07T08:02:05.985Z,99502.84
2018-12-07T08:05:10.632Z,99502.09
2018-12-07T08:08:15.445Z,99497.44
2018-12-07T08:11:20.166Z,99487.83
2018-12-07T08:14:24.825Z,99478.70
2018-12-07T08:17:29.410Z,99478.38
2018-12-07T08:20:34.306Z,99472.75
2018-12-07T08:23:39.310Z,99473.77
2018-12-07T08:26:45.186Z,99470.67
2018-12-07T08:29:49.872Z,99455.91
2018-12-07T08:32:54.601Z,99454.02
2018-12-07T08:35:59.443Z,99449.53
2018-12-07T08:39:06.027Z,99434.83
2018-12-07T08:42:10.748Z,99441.83
2018-12-07T08:45:16.058Z,99435.42
2018-12-07T08:48:20.739Z,99432.25
2018-12-07T08:51:25.500Z,99438.28
2018-12-07T08:54:30.076Z,99426.70
2018-12-07T08:57:34.729Z,99433.30
2018-12-07T09:00:39.331Z,99427.95
2018-12-07T09:03:51.070Z,99427.53
2018-12-07T09:06:55.721Z,99415.28
2018-12-07T09:10:00.593Z,99401.88
2018-12-07T09:13:05.246Z,99395.39
2018-12-07T09:16:09.970Z,99397.55
2018-12-07T09:19:14.714Z,99401.52
2018-12-07T09:22:19.445Z,99386.95
2018-12-07T09:25:24.143Z,99388.30
2018-12-07T09:28:28.772Z,99381.44
2018-12-07T09:31:33.402Z,99385.49
2018-12-07T09:34:38.038Z,99368.02
2018-12-07T09:37:42.658Z,99365.94
2018-12-07T09:40:47.507Z,99364.45
2018-12-07T09:43:52.050Z,99356.95
2018-12-07T09:46:56.712Z,99346.40
2018-12-07T09:50:01.415Z,99347.63
2018-12-07T09:53:05.974Z,99338.24
2018-12-07T09:56:10.567Z,99336.16
2018-12-07T09:59:15.252Z,99335.44
2018-12-07T10:02:19.874Z,99329.61
2018-12-07T10:05:24.645Z,99330.32
2018-12-07T10:08:29.151Z,99316.98
2018-12-07T10:11:33.849Z,99316.92
2018-12-07T10:14:38.376Z,99307.66
2018-12-07T10:17:42.973Z,99308.71
2018-12-07T10:20:47.687Z,99298.39
2018-12-07T10:23:52.341Z,99303.22
2018-12-07T10:27:06.423Z,99287.24
2018-12-07T10:30:11.043Z,99284.00
2018-12-07T10:33:15.781Z,99270.61
2018-12-07T10:36:20.619Z,99265.15
2018-12-07T10:39:25.456Z,99257.06
2018-12-07T10:42:30.201Z,99251.42
2018-12-07T10:45:35.099Z,99247.06
2018-12-07T10:48:39.927Z,99239.70
2018-12-07T10:51:44.658Z,99232.48
2018-12-07T10:54:49.397Z,99223.31
2018-12-07T10:57:55.394Z,99211.43
2018-12-07T11:01:05.650Z,99204.83
2018-12-07T11:04:15.713Z,99207.01
2018-12-07T11:07:25.694Z,99194.14
2018-12-07T11:10:35.543Z,99198.16
2018-12-07T11:13:45.413Z,99188.16
2018-12-07T11:16:55.340Z,99179.39
2018-12-07T11:20:05.276Z,99155.97
2018-12-07T11:23:25.126Z,99155.73
2018-12-07T11:26:34.992Z,99153.67
2018-12-07T11:29:44.707Z,99145.47
2018-12-07T11:32:54.495Z,99144.09
2018-12-07T11:35:59.232Z,99128.97
2018-12-07T11:39:05.923Z,99124.83
2018-12-07T11:42:10.602Z,99130.47
2018-12-07T11:45:15.198Z,99122.24
2018-12-07T11:48:19.731Z,99110.87
2018-12-07T11:51:24.360Z,99103.91
2018-12-07T11:54:29.148Z,99091.23
2018-12-07T11:57:34.087Z,99079.48
2018-12-07T12:00:38.770Z,99074.64
2018-12-07T12:03:43.482Z,99060.23
2018-12-07T12:06:48.064Z,99063.75
2018-12-07T12:09:52.759Z,99064.48
2018-12-07T12:12:57.373Z,99057.91
2018-12-07T12:16:01.923Z,99037.51
2018-12-07T12:19:06.603Z,99035.77
2018-12-07T12:22:11.161Z,99029.04
2018-12-07T12:25:15.888Z,99030.73
2018-12-07T12:28:20.493Z,99032.52
2018-12-07T12:31:25.086Z,99015.39
2018-12-07T12:34:50.467Z,99008.17
2018-12-07T13:03:05.801Z,98960.89
2018-12-07T13:06:11.824Z,98952.47
2018-12-07T13:09:16.402Z,98950.20
2018-12-07T13:12:21.366Z,98941.81
2018-12-07T13:15:26.146Z,98945.62
2018-12-07T13:18:30.710Z,98938.18
2018-12-07T13:21:35.458Z,98927.64
2018-12-07T13:24:44.012Z,98922.58
2018-12-07T13:27:48.799Z,98919.33
2018-12-07T13:30:53.645Z,98914.89
2018-12-07T13:33:58.296Z,98905.24
2018-12-07T13:37:02.891Z,98898.25
2018-12-07T13:40:08.280Z,98897.74
2018-12-07T13:43:13.366Z,98887.80
2018-12-07T13:46:18.703Z,98883.26
2018-12-07T13:49:23.773Z,98873.89
2018-12-07T13:52:28.673Z,98866.73
2018-12-07T13:55:33.778Z,98864.24
2018-12-07T13:58:39.074Z,98844.02
2018-12-07T14:01:44.141Z,98852.30
2018-12-07T14:04:49.013Z,98846.52
2018-12-07T14:07:54.283Z,98837.76
2018-12-07T14:10:59.026Z,98829.32
2018-12-07T14:14:03.839Z,98823.55
2018-12-07T14:17:08.588Z,98824.98
2018-12-07T14:20:13.610Z,98825.50
2018-12-07T14:23:18.698Z,98823.30
2018-12-07T14:26:23.446Z,98815.78
2018-12-07T14:29:29.714Z,98810.30
2018-12-07T14:32:34.864Z,98797.37
2018-12-07T14:35:39.576Z,98790.42
2018-12-07T14:38:44.281Z,98793.02
2018-12-07T14:41:49.037Z,98796.67
2018-12-07T14:44:53.838Z,98783.27
2018-12-07T14:47:58.641Z,98774.09
2018-12-07T14:51:03.580Z,98773.86
2018-12-07T14:54:10.108Z,98777.73
2018-12-07T14:57:15.398Z,98754.36
2018-12-07T15:00:20.292Z,98748.63
2018-12-07T15:03:25.292Z,98740.80
2018-12-07T15:06:30.280Z,98750.12
2018-12-07T15:09:35.090Z,98748.94
2018-12-07T15:12:39.821Z,98738.64
2018-12-07T15:15:44.764Z,98734.48
2018-12-07T15:18:49.560Z,98730.07
2018-12-07T15:21:54.317Z,98722.72
2018-12-07T15:24:59.102Z,98708.07
2018-12-07T15:28:03.729Z,98717.95
2018-12-07T15:31:08.478Z,98710.69
2018-12-07T15:34:13.562Z,98717.45
2018-12-07T15:37:18.349Z,98726.84
2018-12-07T15:40:23.110Z,98727.62
2018-12-07T15:43:28.129Z,98712.05
2018-12-07T15:46:32.951Z,98716.09
2018-12-07T15:49:40.627Z,98689.91
2018-12-07T15:52:45.470Z,98700.44
2018-12-07T15:55:50.366Z,98693.42
2018-12-07T15:58:56.908Z,98689.11
2018-12-07T16:02:01.839Z,98683.23
2018-12-07T16:05:07.926Z,98673.21
2018-12-07T16:08:12.983Z,98665.46
2018-12-07T16:11:18.940Z,98663.69
2018-12-07T16:14:24.075Z,98664.77
2018-12-07T16:17:29.512Z,98663.42
2018-12-07T16:20:34.991Z,98672.14
2018-12-07T16:23:39.923Z,98656.89
2018-12-07T16:26:45.614Z,98659.48
2018-12-07T16:29:50.505Z,98648.99
2018-12-07T16:32:55.441Z,98651.69
2018-12-07T16:36:00.403Z,98642.24
2018-12-07T16:39:07.974Z,98663.53
2018-12-07T16:42:12.705Z,98638.66
2018-12-07T16:45:18.744Z,98623.28
2018-12-07T16:48:23.528Z,98617.57
2018-12-07T16:51:30.214Z,98619.16
2018-12-07T16:54:37.035Z,98617.20
2018-12-07T16:57:42.872Z,98615.65
2018-12-07T17:00:48.001Z,98608.30
2018-12-07T17:03:52.990Z,98603.73
2018-12-07T17:06:57.976Z,98579.48
2018-12-07T17:10:03.031Z,98561.67
2018-12-07T17:13:08.655Z,98555.97
2018-12-07T17:16:13.595Z,98548.25
2018-12-07T17:19:18.306Z,98536.04
2018-12-07T17:22:23.089Z,98530.10
2018-12-07T17:25:27.918Z,98522.82
2018-12-07T17:28:32.507Z,98520.80
2018-12-07T17:31:37.349Z,98535.13
2018-12-07T17:34:41.975Z,98528.19
2018-12-07T17:37:46.685Z,98521.91
2018-12-07T17:40:51.422Z,98509.59
2018-12-07T17:43:56.340Z,98492.00
2018-12-07T17:47:01.576Z,98479.80
2018-12-07T17:50:08.221Z,98483.73
2018-12-07T17:53:13.170Z,98473.95
2018-12-07T17:56:17.959Z,98475.89
2018-12-07T17:59:22.884Z,98452.59
2018-12-07T18:02:27.649Z,98448.16
2018-12-07T18:05:32.324Z,98444.47
2018-12-07T18:08:37.058Z,98429.00
2018-12-07T18:11:42.023Z,98438.98
2018-12-07T18:14:47.001Z,98441.91
2018-12-07T18:17:51.774Z,98431.48
2018-12-07T18:20:56.522Z,98438.87
2018-12-07T18:24:07.864Z,98441.92
2018-12-07T18:27:12.602Z,98434.27
2018-12-07T18:30:17.495Z,98434.97
2018-12-07T18:33:22.343Z,98436.67
2018-12-07T18:36:27.181Z,98436.12
2018-12-07T18:39:32.115Z,98432.84
2018-12-07T18:42:36.971Z,98429.61
2018-12-07T18:45:41.890Z,98419.92
2018-12-07T18:48:46.551Z,98417.86
2018-12-07T18:51:51.342Z,98409.43
2018-12-07T18:54:56.230Z,98400.09
2018-12-07T18:58:00.884Z,98392.58
2018-12-07T19:01:05.821Z,98387.85
2018-12-07T19:04:10.633Z,98384.83
2018-12-07T19:07:15.355Z,98384.06
2018-12-07T19:10:20.286Z,98387.64
2018-12-07T19:13:25.314Z,98384.06
2018-12-07T19:16:30.158Z,98384.50
2018-12-07T19:19:34.966Z,98379.39
2018-12-07T19:22:39.928Z,98376.19
2018-12-07T19:25:44.701Z,98365.92
2018-12-07T19:28:49.433Z,98371.70
2018-12-07T19:31:54.183Z,98371.28
2018-12-07T19:34:58.939Z,98357.31
2018-12-07T19:38:04.095Z,98369.81
2018-12-07T19:41:09.122Z,98370.43
2018-12-07T19:44:14.806Z,98336.94
2018-12-07T19:47:19.568Z,98355.40
2018-12-07T19:50:24.297Z,98339.36
2018-12-07T19:53:29.071Z,98356.97
2018-12-07T19:56:33.873Z,98354.39
2018-12-07T19:59:38.813Z,98335.07
2018-12-07T20:02:43.731Z,98356.81
2018-12-07T20:05:48.887Z,98354.44
2018-12-07T20:08:54.031Z,98331.44
2018-12-07T20:11:58.733Z,98338.87
2018-12-07T20:15:03.699Z,98345.91
2018-12-07T20:18:08.570Z,98374.14
2018-12-07T20:21:13.183Z,98362.28
2018-12-07T20:24:18.375Z,98369.30
2018-12-07T20:27:23.412Z,98408.17
2018-12-07T20:30:28.135Z,98380.98
2018-12-07T20:33:32.818Z,98376.70
2018-12-07T20:36:37.418Z,98419.65
2018-12-07T20:39:42.164Z,98399.33
2018-12-07T20:42:54.070Z,98414.87
2018-12-07T20:45:58.876Z,98429.22
2018-12-07T20:49:03.717Z,98442.66
2018-12-07T20:52:08.573Z,98439.31
2018-12-07T20:55:13.326Z,98450.14
2018-12-07T20:58:17.938Z,98467.65
2018-12-07T21:01:22.764Z,98475.61
2018-12-07T21:04:32.545Z,98467.06
2018-12-07T21:09:32.155Z,98491.14
2018-12-07T21:14:04.340Z,98518.02
2018-12-07T21:17:36.349Z,98516.21
2018-12-07T21:20:41.281Z,98523.05
2018-12-07T21:23:45.969Z,98509.75
2018-12-07T21:26:50.700Z,98526.78
2018-12-07T21:30:58.385Z,98557.99
2018-12-07T21:34:53.353Z,98605.55
2018-12-07T21:37:57.999Z,98611.77
2018-12-07T21:41:02.776Z,98620.80
2018-12-07T21:44:07.868Z,98648.91
2018-12-07T21:47:12.888Z,98637.39
2018-12-07T21:50:17.776Z,98662.62
2018-12-07T21:53:22.591Z,98672.39
2018-12-07T21:56:27.255Z,98685.73
2018-12-07T21:59:32.018Z,98704.59
2018-12-07T22:02:36.885Z,98696.66
2018-12-07T22:05:42.004Z,98699.35
2018-12-07T22:08:46.794Z,98716.30
2018-12-07T22:11:52.269Z,98727.80
2018-12-07T22:14:56.938Z,98739.91
2018-12-07T22:18:01.907Z,98758.31
2018-12-07T22:21:06.636Z,98761.50
2018-12-07T22:24:11.463Z,98779.88
2018-12-07T22:27:16.090Z,98775.49
2018-12-07T22:30:20.833Z,98804.02
2018-12-07T22:33:25.632Z,98814.07
2018-12-07T22:36:30.341Z,98826.92
2018-12-07T22:39:34.909Z,98843.66
2018-12-07T22:42:39.712Z,98845.13
2018-12-07T22:45:44.763Z,98857.98
2018-12-07T22:48:49.758Z,98861.77
2018-12-07T22:51:54.491Z,98871.97
2018-12-07T22:54:59.119Z,98875.77
2018-12-07T22:58:03.801Z,98875.45
2018-12-07T23:01:08.795Z,98878.20
2018-12-07T23:04:13.589Z,98889.98
2018-12-07T23:07:18.174Z,98904.50
2018-12-07T23:10:22.810Z,98899.28
2018-12-07T23:13:27.464Z,98903.24
2018-12-07T23:16:32.123Z,98907.50
2018-12-07T23:19:36.652Z,98908.23
2018-12-07T23:22:41.266Z,98906.55
2018-12-07T23:25:45.828Z,98919.86
2018-12-07T23:28:50.698Z,98908.44
2018-12-07T23:31:55.350Z,98917.09
2018-12-07T23:34:59.974Z,98909.40
2018-12-07T23:38:04.570Z,98923.05
2018-12-07T23:41:09.294Z,98923.31
2018-12-07T23:44:16.996Z,98915.36
2018-12-07T23:47:21.539Z,98938.11
2018-12-07T23:50:26.227Z,98933.77
2018-12-07T23:53:30.812Z,98931.55
2018-12-07T23:56:35.381Z,98932.24
2018-12-07T23:59:40.025Z,98930.99
